sensor_id;sensor_type;location;lat;lon;timestamp;pressure;altitude;pressure_sealevel;temperature
77728;BMP280;68312;53.502;10.030;2023-05-29T00:00:13;102506.28;;;12.16
77728;BMP280;68312;53.502;10.030;2023-05-29T00:02:40;102506.81;;;12.13
77728;BMP280;68312;53.502;10.030;2023-05-29T00:05:05;102509.22;;;12.10
77728;BMP280;68312;53.502;10.030;2023-05-29T00:07:31;102512.16;;;12.08
77728;BMP280;68312;53.502;10.030;2023-05-29T00:09:57;102512.44;;;12.07
77728;BMP280;68312;53.502;10.030;2023-05-29T00:12:23;102509.03;;;12.06
77728;BMP280;68312;53.502;10.030;2023-05-29T00:14:51;102514.28;;;12.06
77728;BMP280;68312;53.502;10.030;2023-05-29T00:17:17;102518.75;;;12.06
77728;BMP280;68312;53.502;10.030;2023-05-29T00:19:43;102514.28;;;12.06
77728;BMP280;68312;53.502;10.030;2023-05-29T00:22:08;102509.56;;;12.03
77728;BMP280;68312;53.502;10.030;2023-05-29T00:24:34;102508.84;;;11.98
77728;BMP280;68312;53.502;10.030;2023-05-29T00:27:00;102516.53;;;11.94
77728;BMP280;68312;53.502;10.030;2023-05-29T00:29:25;102522.34;;;11.91
77728;BMP280;68312;53.502;10.030;2023-05-29T00:31:50;102525.53;;;11.88
77728;BMP280;68312;53.502;10.030;2023-05-29T00:34:16;102524.25;;;11.86
77728;BMP280;68312;53.502;10.030;2023-05-29T00:36:41;102530.84;;;11.84
77728;BMP280;68312;53.502;10.030;2023-05-29T00:39:07;102535.63;;;11.82
77728;BMP280;68312;53.502;10.030;2023-05-29T00:41:32;102543.00;;;11.80
77728;BMP280;68312;53.502;10.030;2023-05-29T00:43:58;102544.84;;;11.79
77728;BMP280;68312;53.502;10.030;2023-05-29T00:46:23;102546.75;;;11.74
77728;BMP280;68312;53.502;10.030;2023-05-29T00:48:49;102553.59;;;11.70
77728;BMP280;68312;53.502;10.030;2023-05-29T00:51:15;102548.97;;;11.62
77728;BMP280;68312;53.502;10.030;2023-05-29T00:53:48;102558.75;;;11.57
77728;BMP280;68312;53.502;10.030;2023-05-29T00:56:15;102566.41;;;11.53
77728;BMP280;68312;53.502;10.030;2023-05-29T00:58:42;102559.13;;;11.45
77728;BMP280;68312;53.502;10.030;2023-05-29T01:01:08;102572.00;;;11.42
77728;BMP280;68312;53.502;10.030;2023-05-29T01:03:34;102568.09;;;11.34
77728;BMP280;68312;53.502;10.030;2023-05-29T01:06:00;102565.28;;;11.26
77728;BMP280;68312;53.502;10.030;2023-05-29T01:08:26;102575.31;;;11.19
77728;BMP280;68312;53.502;10.030;2023-05-29T01:10:56;102579.34;;;11.12
77728;BMP280;68312;53.502;10.030;2023-05-29T01:13:35;102575.94;;;11.06
77728;BMP280;68312;53.502;10.030;2023-05-29T01:16:15;102588.84;;;10.98
77728;BMP280;68312;53.502;10.030;2023-05-29T01:19:17;102584.16;;;10.90
77728;BMP280;68312;53.502;10.030;2023-05-29T01:22:45;102601.28;;;10.88
77728;BMP280;68312;53.502;10.030;2023-05-29T01:29:14;102606.56;;;10.83
77728;BMP280;68312;53.502;10.030;2023-05-29T01:31:45;102603.97;;;10.78
77728;BMP280;68312;53.502;10.030;2023-05-29T01:34:12;102592.16;;;10.71
77728;BMP280;68312;53.502;10.030;2023-05-29T01:36:38;102597.44;;;10.61
77728;BMP280;68312;53.502;10.030;2023-05-29T01:39:04;102590.91;;;10.53
77728;BMP280;68312;53.502;10.030;2023-05-29T01:41:31;102587.50;;;10.48
77728;BMP280;68312;53.502;10.030;2023-05-29T01:43:59;102591.72;;;10.39
77728;BMP280;68312;53.502;10.030;2023-05-29T01:46:27;102595.16;;;10.30
77728;BMP280;68312;53.502;10.030;2023-05-29T01:48:53;102590.44;;;10.22
77728;BMP280;68312;53.502;10.030;2023-05-29T01:51:19;102592.81;;;10.13
77728;BMP280;68312;53.502;10.030;2023-05-29T01:53:44;102600.97;;;10.07
77728;BMP280;68312;53.502;10.030;2023-05-29T01:56:10;102597.31;;;9.98
77728;BMP280;68312;53.502;10.030;2023-05-29T01:58:37;102600.47;;;9.90
77728;BMP280;68312;53.502;10.030;2023-05-29T02:01:05;102603.09;;;9.85
77728;BMP280;68312;53.502;10.030;2023-05-29T02:03:33;102604.91;;;9.80
77728;BMP280;68312;53.502;10.030;2023-05-29T02:06:00;102608.88;;;9.78
77728;BMP280;68312;53.502;10.030;2023-05-29T02:08:26;102608.06;;;9.72
77728;BMP280;68312;53.502;10.030;2023-05-29T02:10:53;102607.03;;;9.68
77728;BMP280;68312;53.502;10.030;2023-05-29T02:13:18;102611.75;;;9.61
77728;BMP280;68312;53.502;10.030;2023-05-29T02:15:44;102604.63;;;9.57
77728;BMP280;68312;53.502;10.030;2023-05-29T02:18:15;102613.31;;;9.53
77728;BMP280;68312;53.502;10.030;2023-05-29T02:20:41;102614.59;;;9.50
77728;BMP280;68312;53.502;10.030;2023-05-29T02:23:09;102616.69;;;9.48
77728;BMP280;68312;53.502;10.030;2023-05-29T02:25:35;102609.63;;;9.44
77728;BMP280;68312;53.502;10.030;2023-05-29T02:28:01;102613.00;;;9.39
77728;BMP280;68312;53.502;10.030;2023-05-29T02:30:28;102609.34;;;9.35
77728;BMP280;68312;53.502;10.030;2023-05-29T02:32:55;102625.06;;;9.30
77728;BMP280;68312;53.502;10.030;2023-05-29T02:35:21;102626.63;;;9.26
77728;BMP280;68312;53.502;10.030;2023-05-29T02:37:46;102610.59;;;9.23
77728;BMP280;68312;53.502;10.030;2023-05-29T02:40:12;102620.53;;;9.21
77728;BMP280;68312;53.502;10.030;2023-05-29T02:42:40;102605.34;;;9.18
77728;BMP280;68312;53.502;10.030;2023-05-29T02:45:06;102605.84;;;9.15
77728;BMP280;68312;53.502;10.030;2023-05-29T02:47:32;102610.56;;;9.13
77728;BMP280;68312;53.502;10.030;2023-05-29T02:49:57;102618.41;;;9.08
77728;BMP280;68312;53.502;10.030;2023-05-29T02:52:23;102619.19;;;9.04
77728;BMP280;68312;53.502;10.030;2023-05-29T02:54:49;102616.03;;;9.02
77728;BMP280;68312;53.502;10.030;2023-05-29T02:57:14;102608.94;;;8.97
77728;BMP280;68312;53.502;10.030;2023-05-29T02:59:40;102609.97;;;8.92
77728;BMP280;68312;53.502;10.030;2023-05-29T03:02:05;102610.75;;;8.92
77728;BMP280;68312;53.502;10.030;2023-05-29T03:04:31;102615.44;;;8.90
77728;BMP280;68312;53.502;10.030;2023-05-29T03:06:57;102611.50;;;8.88
77728;BMP280;68312;53.502;10.030;2023-05-29T03:09:22;102610.72;;;8.82
77728;BMP280;68312;53.502;10.030;2023-05-29T03:11:48;102614.63;;;8.80
77728;BMP280;68312;53.502;10.030;2023-05-29T03:14:14;102616.16;;;8.76
77728;BMP280;68312;53.502;10.030;2023-05-29T03:16:40;102615.66;;;8.74
77728;BMP280;68312;53.502;10.030;2023-05-29T03:19:06;102620.13;;;8.73
77728;BMP280;68312;53.502;10.030;2023-05-29T03:21:33;102614.06;;;8.73
77728;BMP280;68312;53.502;10.030;2023-05-29T03:23:59;102622.75;;;8.73
77728;BMP280;68312;53.502;10.030;2023-05-29T03:26:25;102623.22;;;8.75
77728;BMP280;68312;53.502;10.030;2023-05-29T03:28:50;102614.59;;;8.75
77728;BMP280;68312;53.502;10.030;2023-05-29T03:31:16;102612.25;;;8.73
77728;BMP280;68312;53.502;10.030;2023-05-29T03:33:41;102612.00;;;8.75
77728;BMP280;68312;53.502;10.030;2023-05-29T03:36:07;102611.72;;;8.76
77728;BMP280;68312;53.502;10.030;2023-05-29T03:38:32;102626.13;;;8.79
77728;BMP280;68312;53.502;10.030;2023-05-29T03:40:58;102619.34;;;8.78
77728;BMP280;68312;53.502;10.030;2023-05-29T03:43:24;102617.50;;;8.78
77728;BMP280;68312;53.502;10.030;2023-05-29T03:45:49;102621.97;;;8.78
77728;BMP280;68312;53.502;10.030;2023-05-29T03:48:14;102631.91;;;8.76
77728;BMP280;68312;53.502;10.030;2023-05-29T03:50:40;102635.28;;;8.76
77728;BMP280;68312;53.502;10.030;2023-05-29T03:53:06;102628.22;;;8.77
77728;BMP280;68312;53.502;10.030;2023-05-29T03:55:31;102631.38;;;8.79
77728;BMP280;68312;53.502;10.030;2023-05-29T03:57:57;102636.94;;;8.82
77728;BMP280;68312;53.502;10.030;2023-05-29T04:00:22;102631.94;;;8.86
77728;BMP280;68312;53.502;10.030;2023-05-29T04:02:48;102633.00;;;8.90
77728;BMP280;68312;53.502;10.030;2023-05-29T04:05:13;102641.16;;;8.93
77728;BMP280;68312;53.502;10.030;2023-05-29T04:07:39;102640.63;;;8.96
77728;BMP280;68312;53.502;10.030;2023-05-29T04:10:06;102640.38;;;8.97
77728;BMP280;68312;53.502;10.030;2023-05-29T04:12:32;102645.13;;;9.00
77728;BMP280;68312;53.502;10.030;2023-05-29T04:14:58;102644.88;;;9.02
77728;BMP280;68312;53.502;10.030;2023-05-29T04:17:24;102649.84;;;9.03
77728;BMP280;68312;53.502;10.030;2023-05-29T04:19:50;102648.00;;;9.04
77728;BMP280;68312;53.502;10.030;2023-05-29T04:22:15;102646.94;;;9.05
77728;BMP280;68312;53.502;10.030;2023-05-29T04:24:41;102659.81;;;9.06
77728;BMP280;68312;53.502;10.030;2023-05-29T04:27:10;102656.97;;;9.08
77728;BMP280;68312;53.502;10.030;2023-05-29T04:29:36;102662.47;;;9.11
77728;BMP280;68312;53.502;10.030;2023-05-29T04:32:01;102667.19;;;9.14
77728;BMP280;68312;53.502;10.030;2023-05-29T04:34:27;102658.81;;;9.17
77728;BMP280;68312;53.502;10.030;2023-05-29T04:36:52;102660.16;;;9.20
77728;BMP280;68312;53.502;10.030;2023-05-29T04:39:18;102660.97;;;9.25
77728;BMP280;68312;53.502;10.030;2023-05-29T04:41:43;102667.00;;;9.30
77728;BMP280;68312;53.502;10.030;2023-05-29T04:44:12;102663.63;;;9.35
77728;BMP280;68312;53.502;10.030;2023-05-29T04:46:37;102655.22;;;9.43
77728;BMP280;68312;53.502;10.030;2023-05-29T04:49:03;102660.78;;;9.46
77728;BMP280;68312;53.502;10.030;2023-05-29T04:51:28;102653.97;;;9.45
77728;BMP280;68312;53.502;10.030;2023-05-29T04:53:54;102653.16;;;9.50
77728;BMP280;68312;53.502;10.030;2023-05-29T04:56:19;102657.34;;;9.51
77728;BMP280;68312;53.502;10.030;2023-05-29T04:58:44;102666.56;;;9.58
77728;BMP280;68312;53.502;10.030;2023-05-29T05:01:10;102661.59;;;9.66
77728;BMP280;68312;53.502;10.030;2023-05-29T05:03:35;102675.00;;;9.75
77728;BMP280;68312;53.502;10.030;2023-05-29T05:06:01;102667.16;;;9.80
77728;BMP280;68312;53.502;10.030;2023-05-29T05:08:28;102678.44;;;9.85
77728;BMP280;68312;53.502;10.030;2023-05-29T05:10:54;102679.75;;;9.87
77728;BMP280;68312;53.502;10.030;2023-05-29T05:13:20;102666.91;;;9.96
77728;BMP280;68312;53.502;10.030;2023-05-29T05:15:45;102658.75;;;10.02
77728;BMP280;68312;53.502;10.030;2023-05-29T05:18:11;102669.50;;;10.06
77728;BMP280;68312;53.502;10.030;2023-05-29T05:20:36;102672.13;;;10.06
77728;BMP280;68312;53.502;10.030;2023-05-29T05:23:02;102668.97;;;10.13
77728;BMP280;68312;53.502;10.030;2023-05-29T05:25:27;102683.69;;;10.14
77728;BMP280;68312;53.502;10.030;2023-05-29T05:27:53;102679.25;;;10.20
77728;BMP280;68312;53.502;10.030;2023-05-29T05:30:18;102690.25;;;10.22
77728;BMP280;68312;53.502;10.030;2023-05-29T05:32:44;102683.19;;;10.27
77728;BMP280;68312;53.502;10.030;2023-05-29T05:35:10;102671.88;;;10.32
77728;BMP280;68312;53.502;10.030;2023-05-29T05:37:35;102672.94;;;10.36
77728;BMP280;68312;53.502;10.030;2023-05-29T05:40:00;102670.81;;;10.38
77728;BMP280;68312;53.502;10.030;2023-05-29T05:42:26;102676.84;;;10.43
77728;BMP280;68312;53.502;10.030;2023-05-29T05:44:52;102673.16;;;10.39
77728;BMP280;68312;53.502;10.030;2023-05-29T05:47:17;102673.72;;;10.36
77728;BMP280;68312;53.502;10.030;2023-05-29T05:49:43;102674.72;;;10.45
77728;BMP280;68312;53.502;10.030;2023-05-29T05:52:08;102682.09;;;10.58
77728;BMP280;68312;53.502;10.030;2023-05-29T05:54:34;102677.31;;;10.65
77728;BMP280;68312;53.502;10.030;2023-05-29T05:57:00;102676.75;;;10.77
77728;BMP280;68312;53.502;10.030;2023-05-29T05:59:25;102672.81;;;10.90
77728;BMP280;68312;53.502;10.030;2023-05-29T06:01:51;102678.78;;;11.00
77728;BMP280;68312;53.502;10.030;2023-05-29T06:04:17;102669.88;;;11.01
77728;BMP280;68312;53.502;10.030;2023-05-29T06:06:42;102674.84;;;11.02
77728;BMP280;68312;53.502;10.030;2023-05-29T06:09:08;102673.50;;;11.05
77728;BMP280;68312;53.502;10.030;2023-05-29T06:11:33;102675.66;;;10.93
77728;BMP280;68312;53.502;10.030;2023-05-29T06:13:59;102675.66;;;11.03
77728;BMP280;68312;53.502;10.030;2023-05-29T06:16:24;102679.84;;;10.99
77728;BMP280;68312;53.502;10.030;2023-05-29T06:18:50;102683.25;;;11.09
77728;BMP280;68312;53.502;10.030;2023-05-29T06:21:15;102684.25;;;11.18
77728;BMP280;68312;53.502;10.030;2023-05-29T06:23:41;102685.78;;;11.19
77728;BMP280;68312;53.502;10.030;2023-05-29T06:26:07;102679.41;;;11.40
77728;BMP280;68312;53.502;10.030;2023-05-29T06:28:32;102674.28;;;11.58
77728;BMP280;68312;53.502;10.030;2023-05-29T06:30:58;102673.75;;;11.61
77728;BMP280;68312;53.502;10.030;2023-05-29T06:33:23;102663.91;;;11.71
77728;BMP280;68312;53.502;10.030;2023-05-29T06:35:49;102662.91;;;11.67
77728;BMP280;68312;53.502;10.030;2023-05-29T06:38:14;102661.84;;;11.63
77728;BMP280;68312;53.502;10.030;2023-05-29T06:40:40;102667.63;;;11.70
77728;BMP280;68312;53.502;10.030;2023-05-29T06:43:05;102672.03;;;11.80
77728;BMP280;68312;53.502;10.030;2023-05-29T06:45:31;102680.97;;;11.79
77728;BMP280;68312;53.502;10.030;2023-05-29T06:47:56;102675.97;;;11.82
77728;BMP280;68312;53.502;10.030;2023-05-29T06:50:22;102680.19;;;12.11
77728;BMP280;68312;53.502;10.030;2023-05-29T06:52:48;102676.59;;;12.02
77728;BMP280;68312;53.502;10.030;2023-05-29T06:55:13;102676.97;;;12.19
77728;BMP280;68312;53.502;10.030;2023-05-29T06:57:39;102677.22;;;12.45
77728;BMP280;68312;53.502;10.030;2023-05-29T07:00:05;102678.00;;;12.46
77728;BMP280;68312;53.502;10.030;2023-05-29T07:02:32;102680.97;;;12.63
77728;BMP280;68312;53.502;10.030;2023-05-29T07:04:57;102688.97;;;12.81
77728;BMP280;68312;53.502;10.030;2023-05-29T07:07:26;102679.84;;;12.45
77728;BMP280;68312;53.502;10.030;2023-05-29T07:09:51;102681.78;;;12.63
77728;BMP280;68312;53.502;10.030;2023-05-29T07:12:16;102688.72;;;12.77
77728;BMP280;68312;53.502;10.030;2023-05-29T07:14:42;102693.94;;;13.01
77728;BMP280;68312;53.502;10.030;2023-05-29T07:17:07;102694.03;;;12.96
77728;BMP280;68312;53.502;10.030;2023-05-29T07:19:33;102694.41;;;13.26
77728;BMP280;68312;53.502;10.030;2023-05-29T07:21:58;102694.94;;;13.09
77728;BMP280;68312;53.502;10.030;2023-05-29T07:24:24;102685.69;;;13.07
77728;BMP280;68312;53.502;10.030;2023-05-29T07:26:49;102691.28;;;13.05
77728;BMP280;68312;53.502;10.030;2023-05-29T07:29:16;102689.03;;;13.35
77728;BMP280;68312;53.502;10.030;2023-05-29T07:31:41;102695.84;;;13.73
77728;BMP280;68312;53.502;10.030;2023-05-29T07:34:07;102692.38;;;14.04
77728;BMP280;68312;53.502;10.030;2023-05-29T07:36:35;102700.00;;;14.23
77728;BMP280;68312;53.502;10.030;2023-05-29T07:39:01;102697.19;;;14.02
77728;BMP280;68312;53.502;10.030;2023-05-29T07:41:30;102700.22;;;13.95
77728;BMP280;68312;53.502;10.030;2023-05-29T07:43:55;102694.56;;;14.15
77728;BMP280;68312;53.502;10.030;2023-05-29T07:46:21;102700.75;;;14.37
77728;BMP280;68312;53.502;10.030;2023-05-29T07:48:46;102696.34;;;14.33
77728;BMP280;68312;53.502;10.030;2023-05-29T07:51:12;102696.06;;;14.61
77728;BMP280;68312;53.502;10.030;2023-05-29T07:53:38;102686.47;;;14.65
77728;BMP280;68312;53.502;10.030;2023-05-29T07:56:03;102692.94;;;14.85
77728;BMP280;68312;53.502;10.030;2023-05-29T07:58:32;102703.16;;;15.13
77728;BMP280;68312;53.502;10.030;2023-05-29T08:00:57;102708.00;;;15.11
77728;BMP280;68312;53.502;10.030;2023-05-29T08:03:23;102705.25;;;15.03
77728;BMP280;68312;53.502;10.030;2023-05-29T08:05:48;102699.38;;;14.93
77728;BMP280;68312;53.502;10.030;2023-05-29T08:08:13;102705.94;;;14.82
77728;BMP280;68312;53.502;10.030;2023-05-29T08:10:39;102697.78;;;14.57
77728;BMP280;68312;53.502;10.030;2023-05-29T08:13:04;102702.84;;;14.80
77728;BMP280;68312;53.502;10.030;2023-05-29T08:15:30;102704.38;;;14.94
77728;BMP280;68312;53.502;10.030;2023-05-29T08:17:55;102695.84;;;15.32
77728;BMP280;68312;53.502;10.030;2023-05-29T08:20:21;102695.19;;;15.48
77728;BMP280;68312;53.502;10.030;2023-05-29T08:22:46;102700.38;;;15.53
77728;BMP280;68312;53.502;10.030;2023-05-29T08:25:12;102701.41;;;15.65
77728;BMP280;68312;53.502;10.030;2023-05-29T08:27:37;102692.91;;;15.33
77728;BMP280;68312;53.502;10.030;2023-05-29T08:30:03;102692.91;;;15.55
77728;BMP280;68312;53.502;10.030;2023-05-29T08:32:29;102692.84;;;15.90
77728;BMP280;68312;53.502;10.030;2023-05-29T08:34:55;102690.75;;;16.08
77728;BMP280;68312;53.502;10.030;2023-05-29T08:37:20;102686.97;;;16.48
77728;BMP280;68312;53.502;10.030;2023-05-29T08:39:46;102681.97;;;17.63
77728;BMP280;68312;53.502;10.030;2023-05-29T08:42:21;102681.03;;;17.67
77728;BMP280;68312;53.502;10.030;2023-05-29T08:44:56;102670.53;;;18.08
77728;BMP280;68312;53.502;10.030;2023-05-29T08:47:23;102674.97;;;18.72
77728;BMP280;68312;53.502;10.030;2023-05-29T08:49:53;102680.31;;;19.24
77728;BMP280;68312;53.502;10.030;2023-05-29T08:52:22;102675.59;;;19.42
77728;BMP280;68312;53.502;10.030;2023-05-29T08:54:49;102677.88;;;19.51
77728;BMP280;68312;53.502;10.030;2023-05-29T08:57:14;102681.03;;;19.01
77728;BMP280;68312;53.502;10.030;2023-05-29T08:59:42;102681.50;;;18.63
77728;BMP280;68312;53.502;10.030;2023-05-29T09:02:10;102672.53;;;20.10
77728;BMP280;68312;53.502;10.030;2023-05-29T09:04:36;102674.28;;;20.30
77728;BMP280;68312;53.502;10.030;2023-05-29T09:07:01;102674.47;;;21.30
77728;BMP280;68312;53.502;10.030;2023-05-29T09:09:27;102676.78;;;20.00
77728;BMP280;68312;53.502;10.030;2023-05-29T09:11:53;102686.66;;;19.64
77728;BMP280;68312;53.502;10.030;2023-05-29T09:14:35;102673.84;;;19.69
77728;BMP280;68312;53.502;10.030;2023-05-29T09:17:03;102677.72;;;20.30
77728;BMP280;68312;53.502;10.030;2023-05-29T09:19:30;102681.88;;;21.36
77728;BMP280;68312;53.502;10.030;2023-05-29T09:24:34;102673.50;;;20.80
77728;BMP280;68312;53.502;10.030;2023-05-29T09:27:02;102676.91;;;20.65
77728;BMP280;68312;53.502;10.030;2023-05-29T09:29:31;102680.75;;;21.22
77728;BMP280;68312;53.502;10.030;2023-05-29T09:31:57;102684.00;;;21.00
77728;BMP280;68312;53.502;10.030;2023-05-29T09:34:24;102676.91;;;20.65
77728;BMP280;68312;53.502;10.030;2023-05-29T09:36:50;102681.06;;;20.39
77728;BMP280;68312;53.502;10.030;2023-05-29T09:39:15;102681.00;;;20.63
77728;BMP280;68312;53.502;10.030;2023-05-29T09:41:42;102686.00;;;20.91
77728;BMP280;68312;53.502;10.030;2023-05-29T09:44:15;102682.94;;;20.39
77728;BMP280;68312;53.502;10.030;2023-05-29T09:46:41;102686.28;;;20.48
77728;BMP280;68312;53.502;10.030;2023-05-29T09:49:12;102680.94;;;20.48
77728;BMP280;68312;53.502;10.030;2023-05-29T09:51:38;102678.69;;;20.61
77728;BMP280;68312;53.502;10.030;2023-05-29T09:54:17;102678.94;;;20.56
77728;BMP280;68312;53.502;10.030;2023-05-29T09:56:44;102670.09;;;20.29
77728;BMP280;68312;53.502;10.030;2023-05-29T09:59:11;102676.81;;;20.38
77728;BMP280;68312;53.502;10.030;2023-05-29T10:01:44;102672.56;;;20.61
77728;BMP280;68312;53.502;10.030;2023-05-29T10:04:10;102670.97;;;21.14
77728;BMP280;68312;53.502;10.030;2023-05-29T10:06:38;102664.56;;;20.88
77728;BMP280;68312;53.502;10.030;2023-05-29T10:09:09;102664.69;;;20.53
77728;BMP280;68312;53.502;10.030;2023-05-29T10:11:38;102661.69;;;20.42
77728;BMP280;68312;53.502;10.030;2023-05-29T10:14:10;102671.25;;;21.24
77728;BMP280;68312;53.502;10.030;2023-05-29T10:16:46;102662.28;;;21.17
77728;BMP280;68312;53.502;10.030;2023-05-29T10:19:19;102660.09;;;20.65
77728;BMP280;68312;53.502;10.030;2023-05-29T10:21:53;102658.88;;;21.04
77728;BMP280;68312;53.502;10.030;2023-05-29T10:24:20;102646.16;;;21.74
77728;BMP280;68312;53.502;10.030;2023-05-29T10:26:48;102654.88;;;21.56
77728;BMP280;68312;53.502;10.030;2023-05-29T10:32:11;102649.34;;;21.19
77728;BMP280;68312;53.502;10.030;2023-05-29T10:35:01;102657.28;;;21.15
77728;BMP280;68312;53.502;10.030;2023-05-29T10:38:02;102650.00;;;21.16
77728;BMP280;68312;53.502;10.030;2023-05-29T10:40:36;102652.03;;;21.34
77728;BMP280;68312;53.502;10.030;2023-05-29T10:43:02;102635.91;;;21.46
77728;BMP280;68312;53.502;10.030;2023-05-29T10:47:53;102629.50;;;21.35
77728;BMP280;68312;53.502;10.030;2023-05-29T10:50:47;102633.81;;;22.04
77728;BMP280;68312;53.502;10.030;2023-05-29T10:53:18;102641.50;;;22.24
77728;BMP280;68312;53.502;10.030;2023-05-29T10:55:50;102636.84;;;22.21
77728;BMP280;68312;53.502;10.030;2023-05-29T10:58:21;102631.56;;;22.06
77728;BMP280;68312;53.502;10.030;2023-05-29T11:00:49;102632.16;;;22.33
77728;BMP280;68312;53.502;10.030;2023-05-29T11:03:19;102641.66;;;21.78
77728;BMP280;68312;53.502;10.030;2023-05-29T11:06:06;102635.19;;;21.33
77728;BMP280;68312;53.502;10.030;2023-05-29T11:08:45;102632.16;;;22.33
77728;BMP280;68312;53.502;10.030;2023-05-29T11:13:54;102609.53;;;22.71
77728;BMP280;68312;53.502;10.030;2023-05-29T11:18:53;102604.72;;;22.58
77728;BMP280;68312;53.502;10.030;2023-05-29T11:24:18;102615.53;;;22.65
77728;BMP280;68312;53.502;10.030;2023-05-29T11:26:51;102615.41;;;22.77
77728;BMP280;68312;53.502;10.030;2023-05-29T11:29:27;102609.16;;;22.91
77728;BMP280;68312;53.502;10.030;2023-05-29T11:34:32;102609.59;;;22.97
77728;BMP280;68312;53.502;10.030;2023-05-29T11:36:59;102613.59;;;23.06
77728;BMP280;68312;53.502;10.030;2023-05-29T11:39:26;102609.81;;;23.55
77728;BMP280;68312;53.502;10.030;2023-05-29T11:41:52;102608.94;;;23.76
77728;BMP280;68312;53.502;10.030;2023-05-29T11:44:20;102604.53;;;23.14
77728;BMP280;68312;53.502;10.030;2023-05-29T11:46:59;102601.75;;;23.29
77728;BMP280;68312;53.502;10.030;2023-05-29T11:49:32;102603.38;;;22.89
77728;BMP280;68312;53.502;10.030;2023-05-29T11:52:11;102598.81;;;23.41
77728;BMP280;68312;53.502;10.030;2023-05-29T11:54:38;102597.66;;;23.38
77728;BMP280;68312;53.502;10.030;2023-05-29T11:57:04;102599.56;;;23.38
77728;BMP280;68312;53.502;10.030;2023-05-29T11:59:30;102613.66;;;23.57
77728;BMP280;68312;53.502;10.030;2023-05-29T12:01:56;102608.06;;;23.18
77728;BMP280;68312;53.502;10.030;2023-05-29T12:04:22;102599.69;;;23.74
77728;BMP280;68312;53.502;10.030;2023-05-29T12:06:47;102598.69;;;23.81
77728;BMP280;68312;53.502;10.030;2023-05-29T12:09:26;102601.34;;;23.05
77728;BMP280;68312;53.502;10.030;2023-05-29T12:11:54;102601.19;;;23.20
77728;BMP280;68312;53.502;10.030;2023-05-29T12:14:27;102590.75;;;23.37
77728;BMP280;68312;53.502;10.030;2023-05-29T12:16:52;102598.94;;;23.00
77728;BMP280;68312;53.502;10.030;2023-05-29T12:19:21;102588.84;;;23.96
77728;BMP280;68312;53.502;10.030;2023-05-29T12:21:49;102594.47;;;23.84
77728;BMP280;68312;53.502;10.030;2023-05-29T12:24:14;102598.00;;;23.37
77728;BMP280;68312;53.502;10.030;2023-05-29T12:26:42;102596.13;;;22.71
77728;BMP280;68312;53.502;10.030;2023-05-29T12:29:08;102596.91;;;22.72
77728;BMP280;68312;53.502;10.030;2023-05-29T12:31:33;102601.13;;;22.91
77728;BMP280;68312;53.502;10.030;2023-05-29T12:34:00;102592.16;;;22.62
77728;BMP280;68312;53.502;10.030;2023-05-29T12:36:32;102600.88;;;22.78
77728;BMP280;68312;53.502;10.030;2023-05-29T12:38:58;102592.59;;;23.08
77728;BMP280;68312;53.502;10.030;2023-05-29T12:41:28;102598.53;;;22.76
77728;BMP280;68312;53.502;10.030;2023-05-29T12:44:01;102598.72;;;22.08
77728;BMP280;68312;53.502;10.030;2023-05-29T12:46:36;102581.03;;;22.04
77728;BMP280;68312;53.502;10.030;2023-05-29T12:49:17;102577.47;;;21.97
77728;BMP280;68312;53.502;10.030;2023-05-29T12:51:45;102578.09;;;22.90
77728;BMP280;68312;53.502;10.030;2023-05-29T12:54:11;102579.88;;;23.05
77728;BMP280;68312;53.502;10.030;2023-05-29T12:56:39;102575.38;;;22.87
77728;BMP280;68312;53.502;10.030;2023-05-29T12:59:09;102573.06;;;23.11
77728;BMP280;68312;53.502;10.030;2023-05-29T13:01:36;102565.25;;;22.77
77728;BMP280;68312;53.502;10.030;2023-05-29T13:04:04;102568.44;;;23.08
77728;BMP280;68312;53.502;10.030;2023-05-29T13:06:30;102561.38;;;23.22
77728;BMP280;68312;53.502;10.030;2023-05-29T13:08:56;102560.59;;;23.47
77728;BMP280;68312;53.502;10.030;2023-05-29T13:11:21;102551.91;;;23.86
77728;BMP280;68312;53.502;10.030;2023-05-29T13:13:47;102548.34;;;24.07
77728;BMP280;68312;53.502;10.030;2023-05-29T13:16:12;102544.84;;;24.43
77728;BMP280;68312;53.502;10.030;2023-05-29T13:18:41;102553.91;;;24.64
77728;BMP280;68312;53.502;10.030;2023-05-29T13:21:06;102550.19;;;24.39
77728;BMP280;68312;53.502;10.030;2023-05-29T13:23:32;102548.41;;;24.14
77728;BMP280;68312;53.502;10.030;2023-05-29T13:25:57;102542.38;;;24.24
77728;BMP280;68312;53.502;10.030;2023-05-29T13:28:23;102544.44;;;24.02
77728;BMP280;68312;53.502;10.030;2023-05-29T13:30:48;102549.66;;;23.88
77728;BMP280;68312;53.502;10.030;2023-05-29T13:33:14;102545.59;;;24.40
77728;BMP280;68312;53.502;10.030;2023-05-29T13:35:39;102550.84;;;24.29
77728;BMP280;68312;53.502;10.030;2023-05-29T13:38:05;102550.84;;;23.94
77728;BMP280;68312;53.502;10.030;2023-05-29T13:40:30;102548.47;;;24.18
77728;BMP280;68312;53.502;10.030;2023-05-29T13:42:56;102547.50;;;23.42
77728;BMP280;68312;53.502;10.030;2023-05-29T13:45:21;102556.72;;;23.45
77728;BMP280;68312;53.502;10.030;2023-05-29T13:47:47;102550.75;;;23.55
77728;BMP280;68312;53.502;10.030;2023-05-29T13:50:12;102542.84;;;23.97
77728;BMP280;68312;53.502;10.030;2023-05-29T13:52:38;102554.59;;;23.86
77728;BMP280;68312;53.502;10.030;2023-05-29T13:55:04;102552.63;;;24.12
77728;BMP280;68312;53.502;10.030;2023-05-29T13:57:30;102549.97;;;24.54
77728;BMP280;68312;53.502;10.030;2023-05-29T13:59:55;102546.72;;;25.38
77728;BMP280;68312;53.502;10.030;2023-05-29T14:02:20;102543.41;;;25.75
77728;BMP280;68312;53.502;10.030;2023-05-29T14:04:46;102544.84;;;25.49
77728;BMP280;68312;53.502;10.030;2023-05-29T14:07:11;102527.78;;;25.24
77728;BMP280;68312;53.502;10.030;2023-05-29T14:09:37;102539.47;;;25.55